createdAt,value
2022-12-01T00:01:22.213Z,17.30
2022-12-01T00:03:49.802Z,16.88
2022-12-01T00:06:19.886Z,16.98
2022-12-01T00:09:19.667Z,17.23
2022-12-01T00:11:47.610Z,16.63
2022-12-01T00:14:16.350Z,16.85
2022-12-01T00:16:44.593Z,17.05
2022-12-01T00:19:11.997Z,16.83
2022-12-01T00:21:39.362Z,16.05
2022-12-01T00:24:09.420Z,17.45
2022-12-01T00:26:38.572Z,17.15
2022-12-01T00:29:05.924Z,16.85
2022-12-01T00:31:33.140Z,15.80
2022-12-01T00:34:02.488Z,17.27
2022-12-01T00:36:32.149Z,15.85
2022-12-01T00:38:59.417Z,16.92
2022-12-01T00:41:26.811Z,17.38
2022-12-01T00:43:54.056Z,16.08
2022-12-01T00:46:21.860Z,18.13
2022-12-01T00:48:49.270Z,17.55
2022-12-01T00:51:16.560Z,17.70
2022-12-01T00:53:43.773Z,17.20
2022-12-01T00:56:11.037Z,16.75
2022-12-01T00:58:38.267Z,15.88
2022-12-01T01:01:06.015Z,17.33
2022-12-01T01:03:33.981Z,16.67
2022-12-01T01:06:10.531Z,16.50
2022-12-01T01:08:38.225Z,17.48
2022-12-01T01:11:06.661Z,18.13
2022-12-01T01:13:34.393Z,16.95
2022-12-01T01:16:02.994Z,17.35
2022-12-01T01:18:30.689Z,17.58
2022-12-01T01:20:59.835Z,16.50
2022-12-01T01:23:27.473Z,18.42
2022-12-01T01:26:00.371Z,17.77
2022-12-01T01:28:27.615Z,18.42
2022-12-01T01:30:54.827Z,18.58
2022-12-01T01:33:22.170Z,17.50
2022-12-01T01:35:49.476Z,17.63
2022-12-01T01:38:16.774Z,18.02
2022-12-01T01:40:45.400Z,17.65
2022-12-01T01:43:18.695Z,17.42
2022-12-01T01:45:46.099Z,18.23
2022-12-01T01:48:14.597Z,17.67
2022-12-01T01:50:42.744Z,18.35
2022-12-01T01:53:14.252Z,18.92
2022-12-01T01:55:41.530Z,18.33
2022-12-01T01:58:10.891Z,17.73
2022-12-01T02:00:41.576Z,19.73
2022-12-01T02:03:13.297Z,18.40
2022-12-01T02:05:40.665Z,20.05
2022-12-01T02:08:12.350Z,20.08
2022-12-01T02:11:00.843Z,18.73
2022-12-01T02:13:36.537Z,18.27
2022-12-01T02:16:25.383Z,20.98
2022-12-01T02:19:03.542Z,20.67
2022-12-01T02:21:37.241Z,19.00
2022-12-01T02:24:26.395Z,21.88
2022-12-01T02:26:59.378Z,20.75
2022-12-01T02:29:49.475Z,20.90
2022-12-01T02:32:28.869Z,21.58
2022-12-01T02:35:31.269Z,21.20
2022-12-01T02:38:30.187Z,21.95
2022-12-01T02:41:20.122Z,21.73
2022-12-01T02:44:06.145Z,21.52
2022-12-01T02:47:04.249Z,21.42
2022-12-01T02:49:36.868Z,22.25
2022-12-01T02:52:06.680Z,21.52
2022-12-01T02:54:35.884Z,22.42
2022-12-01T02:57:03.223Z,22.85
2022-12-01T02:59:30.430Z,21.48
2022-12-01T03:02:03.399Z,21.42
2022-12-01T03:04:38.962Z,21.05
2022-12-01T03:07:33.268Z,20.90
2022-12-01T03:10:19.782Z,23.00
2022-12-01T03:13:11.829Z,22.00
2022-12-01T03:16:06.963Z,22.45
2022-12-01T03:19:05.028Z,22.50
2022-12-01T03:21:43.247Z,23.65
2022-12-01T03:24:20.090Z,22.08
2022-12-01T03:26:52.185Z,22.08
2022-12-01T03:29:26.169Z,21.83
2022-12-01T03:31:59.092Z,24.88
2022-12-01T03:34:38.256Z,21.70
2022-12-01T03:37:11.240Z,23.15
2022-12-01T03:39:41.575Z,21.17
2022-12-01T03:42:13.504Z,20.23
2022-12-01T03:45:10.462Z,21.13
2022-12-01T03:47:40.414Z,21.38
2022-12-01T03:50:13.296Z,20.98
2022-12-01T03:53:06.055Z,20.77
2022-12-01T03:55:41.446Z,20.95
2022-12-01T03:58:30.562Z,18.80
2022-12-01T04:00:59.213Z,20.00
2022-12-01T04:03:27.166Z,22.83
2022-12-01T04:05:54.638Z,21.67
2022-12-01T04:08:21.987Z,21.73
2022-12-01T04:10:49.381Z,19.30
2022-12-01T04:13:23.272Z,19.77
2022-12-01T04:15:54.492Z,19.63
2022-12-01T04:18:22.150Z,21.00
2022-12-01T04:20:50.341Z,21.13
2022-12-01T04:23:36.437Z,21.33
2022-12-01T04:26:05.139Z,22.05
2022-12-01T04:28:32.835Z,20.52
2022-12-01T04:31:00.143Z,20.33
2022-12-01T04:33:28.975Z,21.23
2022-12-01T04:36:00.555Z,21.13
2022-12-01T04:38:30.822Z,23.50
2022-12-01T04:40:58.852Z,23.25
2022-12-01T04:43:26.095Z,21.45
2022-12-01T04:45:53.327Z,22.50
2022-12-01T04:48:20.557Z,23.40
2022-12-01T04:50:49.919Z,25.05
2022-12-01T04:53:17.195Z,23.17
2022-12-01T04:55:44.559Z,22.88
2022-12-01T04:58:11.956Z,22.00
2022-12-01T05:00:39.401Z,21.75
2022-12-01T05:03:09.627Z,22.48
2022-12-01T05:05:40.848Z,21.75
2022-12-01T05:08:08.380Z,23.02
2022-12-01T05:10:36.873Z,21.67
2022-12-01T05:13:05.595Z,21.02
2022-12-01T05:15:33.128Z,23.40
2022-12-01T05:18:00.760Z,22.30
2022-12-01T05:20:47.137Z,21.48
2022-12-01T05:23:17.013Z,23.50
2022-12-01T05:25:44.574Z,23.90
2022-12-01T05:28:11.881Z,22.42
2022-12-01T05:30:39.530Z,25.15
2022-12-01T05:33:06.754Z,25.70
2022-12-01T05:35:34.854Z,22.60
2022-12-01T05:38:07.517Z,23.80
2022-12-01T05:40:35.574Z,25.40
2022-12-01T05:43:02.957Z,27.13
2022-12-01T05:45:30.603Z,25.13
2022-12-01T05:47:59.851Z,23.45
2022-12-01T05:50:29.047Z,25.42
2022-12-01T05:52:56.402Z,25.75
2022-12-01T05:55:23.733Z,26.08
2022-12-01T05:57:51.032Z,27.63
2022-12-01T06:00:18.794Z,24.05
2022-12-01T06:02:46.097Z,23.73
2022-12-01T06:05:13.334Z,28.10
2022-12-01T06:07:40.759Z,24.70
2022-12-01T06:10:09.901Z,24.88
2022-12-01T06:12:37.946Z,25.63
2022-12-01T06:15:06.707Z,27.00
2022-12-01T06:17:38.652Z,25.55
2022-12-01T06:20:09.250Z,23.20
2022-12-01T06:22:36.555Z,26.73
2022-12-01T06:25:04.394Z,24.95
2022-12-01T06:27:31.606Z,24.55
2022-12-01T06:29:58.895Z,27.27
2022-12-01T06:32:26.156Z,26.88
2022-12-01T06:34:53.467Z,27.27
2022-12-01T06:37:20.957Z,25.15
2022-12-01T06:39:48.450Z,24.85
2022-12-01T06:42:15.991Z,24.35
2022-12-01T06:44:43.286Z,23.85
2022-12-01T06:47:10.603Z,24.10
2022-12-01T06:49:38.345Z,24.30
2022-12-01T06:52:05.813Z,21.42
2022-12-01T06:54:33.549Z,23.52
2022-12-01T06:57:00.869Z,22.95
2022-12-01T06:59:28.385Z,21.90
2022-12-01T07:01:57.690Z,23.65
2022-12-01T07:04:24.950Z,26.05
2022-12-01T07:06:52.218Z,23.05
2022-12-01T07:09:19.507Z,22.73
2022-12-01T07:11:46.805Z,22.38
2022-12-01T07:14:24.858Z,24.13
2022-12-01T07:16:52.686Z,23.58
2022-12-01T07:19:20.067Z,22.65
2022-12-01T07:21:47.400Z,23.13
2022-12-01T07:24:14.817Z,24.20
2022-12-01T07:26:42.660Z,27.50
2022-12-01T07:29:11.051Z,28.50
2022-12-01T07:31:39.156Z,31.50
2022-12-01T07:34:06.934Z,28.38
2022-12-01T07:36:34.509Z,26.88
2022-12-01T07:39:06.582Z,30.77
2022-12-01T07:41:35.072Z,28.90
2022-12-01T07:44:02.879Z,29.15
2022-12-01T07:46:30.450Z,30.42
2022-12-01T07:48:58.113Z,28.67
2022-12-01T07:51:26.799Z,29.55
2022-12-01T07:53:54.831Z,29.98
2022-12-01T07:56:23.188Z,28.33
2022-12-01T07:58:50.696Z,28.88
2022-12-01T08:01:21.518Z,28.65
2022-12-01T08:03:54.958Z,27.67
2022-12-01T08:06:23.794Z,29.40
2022-12-01T08:08:51.658Z,28.10
2022-12-01T08:11:25.047Z,29.33
2022-12-01T08:13:53.085Z,28.23
2022-12-01T08:16:22.514Z,28.25
2022-12-01T08:18:50.294Z,29.98
2022-12-01T08:21:19.961Z,29.17
2022-12-01T08:23:47.924Z,28.20
2022-12-01T08:26:17.933Z,25.73
2022-12-01T08:28:45.630Z,28.05
2022-12-01T08:31:25.730Z,25.75
2022-12-01T08:33:53.708Z,27.23
2022-12-01T08:36:21.870Z,28.08
2022-12-01T08:38:51.612Z,30.83
2022-12-01T08:41:19.700Z,28.95
2022-12-01T08:43:57.793Z,26.83
2022-12-01T08:46:26.863Z,27.95
2022-12-01T08:48:57.231Z,26.90
2022-12-01T08:51:25.121Z,26.80
2022-12-01T08:53:52.535Z,26.52
2022-12-01T08:56:21.736Z,29.25
2022-12-01T08:58:50.330Z,27.85
2022-12-01T09:01:18.553Z,28.13
2022-12-01T09:03:46.194Z,26.42
2022-12-01T09:06:20.279Z,31.20
2022-12-01T09:08:47.702Z,25.95
2022-12-01T09:11:18.036Z,27.95
2022-12-01T09:13:51.309Z,27.40
2022-12-01T09:16:20.402Z,26.75
2022-12-01T09:18:48.670Z,27.02
2022-12-01T09:21:27.488Z,26.27
2022-12-01T09:23:55.057Z,26.65
2022-12-01T09:26:23.684Z,27.83
2022-12-01T09:28:54.860Z,28.02
2022-12-01T09:31:25.611Z,27.00
2022-12-01T09:33:58.235Z,26.08
2022-12-01T09:36:25.850Z,25.83
2022-12-01T09:38:53.139Z,27.50
2022-12-01T09:41:37.621Z,27.23
2022-12-01T09:44:14.200Z,25.63
2022-12-01T09:46:48.418Z,26.17
2022-12-01T09:49:35.958Z,26.05
2022-12-01T09:52:03.288Z,25.98
2022-12-01T09:54:30.612Z,27.15
2022-12-01T09:57:00.227Z,25.95
2022-12-01T09:59:32.744Z,25.75
2022-12-01T10:02:03.207Z,26.73
2022-12-01T10:04:45.233Z,27.23
2022-12-01T10:07:24.371Z,26.65
2022-12-01T10:10:05.983Z,24.92
2022-12-01T10:12:35.861Z,25.63
2022-12-01T10:15:27.342Z,28.83
2022-12-01T10:18:32.796Z,26.15
2022-12-01T10:21:08.283Z,28.27
2022-12-01T10:24:10.688Z,26.83
2022-12-01T10:26:55.844Z,27.92
2022-12-01T10:29:48.712Z,25.35
2022-12-01T10:32:32.711Z,24.58
2022-12-01T10:35:00.037Z,27.75
2022-12-01T10:37:30.039Z,27.52
2022-12-01T10:39:58.499Z,26.65
2022-12-01T10:42:39.683Z,26.10
2022-12-01T10:45:31.567Z,27.35
2022-12-01T10:48:18.764Z,25.60
2022-12-01T10:50:52.775Z,24.45
2022-12-01T10:53:22.963Z,27.17
2022-12-01T10:56:05.549Z,27.52
2022-12-01T10:58:40.646Z,25.13
2022-12-01T11:01:15.793Z,26.40
2022-12-01T11:03:43.758Z,26.92
2022-12-01T11:06:11.768Z,27.95
2022-12-01T11:08:53.450Z,25.58
2022-12-01T11:11:27.952Z,28.65
2022-12-01T11:13:57.016Z,28.88
2022-12-01T11:16:46.118Z,26.80
2022-12-01T11:19:33.527Z,27.25
2022-12-01T11:22:12.939Z,24.83
2022-12-01T11:24:43.291Z,26.65
2022-12-01T11:27:20.932Z,25.48
2022-12-01T11:30:23.215Z,25.90
2022-12-01T11:33:04.477Z,27.38
2022-12-01T11:35:37.749Z,24.52
2022-12-01T11:38:28.764Z,24.95
2022-12-01T11:40:56.488Z,25.58
2022-12-01T11:43:34.380Z,25.80
2022-12-01T11:46:05.841Z,24.85
2022-12-01T11:48:36.138Z,24.38
2022-12-01T11:51:21.318Z,24.25
2022-12-01T11:53:48.841Z,26.65
2022-12-01T11:56:23.197Z,25.75
2022-12-01T11:58:56.857Z,26.00
2022-12-01T12:01:45.967Z,24.52
2022-12-01T12:04:30.219Z,25.55
2022-12-01T12:07:09.589Z,25.90
2022-12-01T12:10:14.556Z,25.17
2022-12-01T12:13:00.619Z,24.20
2022-12-01T12:15:52.646Z,24.38
2022-12-01T12:18:38.664Z,23.50
2022-12-01T12:21:27.637Z,24.38
2022-12-01T12:24:39.273Z,23.38
2022-12-01T12:27:25.457Z,25.90
2022-12-01T12:30:18.176Z,22.30
2022-12-01T12:33:17.862Z,25.02
2022-12-01T12:36:24.294Z,24.65
2022-12-01T12:39:24.380Z,24.13
2022-12-01T12:41:55.638Z,24.00
2022-12-01T12:44:48.986Z,22.25
2022-12-01T12:47:48.252Z,23.23
2022-12-01T12:50:27.153Z,22.58
2022-12-01T12:53:08.520Z,23.60
2022-12-01T12:55:41.648Z,22.98
2022-12-01T12:58:17.347Z,21.17
2022-12-01T13:00:56.191Z,22.52
2022-12-01T13:03:50.875Z,21.17
2022-12-01T13:06:35.537Z,20.83
2022-12-01T13:09:15.583Z,22.10
2022-12-01T13:11:50.133Z,23.30
2022-12-01T13:14:40.940Z,22.20
2022-12-01T13:17:20.336Z,22.70
2022-12-01T13:19:48.406Z,22.95
2022-12-01T13:22:18.674Z,20.73
2022-12-01T13:24:46.059Z,22.55
2022-12-01T13:27:19.211Z,20.30
2022-12-01T13:29:49.802Z,21.67
2022-12-01T13:32:37.188Z,20.77
2022-12-01T13:35:24.174Z,22.35
2022-12-01T13:37:51.684Z,19.67
2022-12-01T13:40:31.362Z,22.05
2022-12-01T13:43:07.018Z,20.60
2022-12-01T13:45:40.248Z,20.77
2022-12-01T13:48:48.844Z,20.10
2022-12-01T13:51:16.628Z,19.80
2022-12-01T13:53:57.784Z,19.52
2022-12-01T13:56:39.254Z,20.20
2022-12-01T13:59:41.742Z,18.50
2022-12-01T14:02:22.483Z,19.50
2022-12-01T14:04:49.957Z,18.88
2022-12-01T14:07:26.155Z,22.55
2022-12-01T14:09:57.524Z,20.02
2022-12-01T14:12:34.384Z,19.25
2022-12-01T14:15:24.005Z,19.90
2022-12-01T14:18:18.707Z,19.38
2022-12-01T14:20:48.384Z,20.00
2022-12-01T14:23:18.446Z,19.05
2022-12-01T14:25:59.655Z,19.35
2022-12-01T14:29:03.667Z,19.52
2022-12-01T14:31:33.793Z,20.50
2022-12-01T14:34:08.360Z,17.33
2022-12-01T14:36:48.193Z,18.50
2022-12-01T14:39:25.856Z,17.80
2022-12-01T14:42:36.045Z,17.55
2022-12-01T14:45:05.790Z,18.80
2022-12-01T14:48:01.442Z,18.85
2022-12-01T14:50:51.290Z,18.52
2022-12-01T14:53:24.481Z,18.17
2022-12-01T14:55:57.736Z,19.33
2022-12-01T14:58:31.413Z,17.25
2022-12-01T15:01:07.002Z,17.83
2022-12-01T15:03:39.463Z,19.50
2022-12-01T15:06:07.660Z,19.63
2022-12-01T15:08:41.837Z,17.92
2022-12-01T15:11:22.630Z,19.33
2022-12-01T15:13:53.013Z,20.70
2022-12-01T15:16:23.127Z,18.13
2022-12-01T15:18:51.306Z,18.92
2022-12-01T15:21:28.978Z,19.38
2022-12-01T15:24:20.675Z,19.48
2022-12-01T15:26:55.951Z,18.33
2022-12-01T15:29:31.741Z,17.35
2022-12-01T15:32:07.880Z,17.27
2022-12-01T15:34:44.569Z,17.63
2022-12-01T15:37:15.830Z,18.13
2022-12-01T15:39:52.547Z,16.35
2022-12-01T15:42:24.711Z,17.52
2022-12-01T15:45:04.715Z,17.30
2022-12-01T15:47:38.205Z,17.73
2022-12-01T15:50:06.582Z,16.17
2022-12-01T15:52:44.105Z,17.92
2022-12-01T15:55:28.095Z,18.35
2022-12-01T15:57:55.795Z,19.85
2022-12-01T16:00:24.272Z,15.65
2022-12-01T16:02:55.007Z,17.55
2022-12-01T16:05:25.263Z,16.67
2022-12-01T16:10:40.106Z,16.45
2022-12-01T16:13:38.270Z,16.65
2022-12-01T16:16:24.235Z,16.83
2022-12-01T16:19:00.437Z,15.30
2022-12-01T16:21:29.114Z,17.35
2022-12-01T16:24:01.894Z,17.08
2022-12-01T16:26:30.187Z,19.75
2022-12-01T16:28:58.067Z,17.38
2022-12-01T16:31:27.208Z,16.23
2022-12-01T16:34:14.002Z,17.77
2022-12-01T16:36:49.885Z,16.02
2022-12-01T16:39:17.739Z,16.75
2022-12-01T16:41:46.681Z,17.52
2022-12-01T16:44:32.404Z,17.48
2022-12-01T16:46:59.902Z,16.27
2022-12-01T16:49:28.852Z,16.83
2022-12-01T16:51:57.056Z,15.30
2022-12-01T16:54:25.608Z,16.52
2022-12-01T16:56:52.903Z,15.27
2022-12-01T16:59:20.254Z,16.33
2022-12-01T17:01:47.585Z,17.00
2022-12-01T17:04:15.070Z,15.52
2022-12-01T17:06:42.326Z,15.45
2022-12-01T17:09:09.740Z,15.80
2022-12-01T17:11:36.989Z,15.45
2022-12-01T17:14:04.195Z,14.13
2022-12-01T17:16:31.502Z,14.57
2022-12-01T17:19:01.122Z,16.35
2022-12-01T17:21:28.402Z,16.17
2022-12-01T17:23:56.127Z,14.00
2022-12-01T17:26:24.112Z,15.00
2022-12-01T17:28:53.579Z,17.42
2022-12-01T17:31:20.930Z,14.40
2022-12-01T17:33:48.314Z,16.10
2022-12-01T17:36:16.442Z,14.65
2022-12-01T17:38:46.398Z,15.18
2022-12-01T17:41:25.608Z,15.43
2022-12-01T17:43:52.866Z,13.10
2022-12-01T17:46:20.219Z,16.67
2022-12-01T17:48:48.045Z,16.20
2022-12-01T17:51:15.608Z,15.48
2022-12-01T17:53:42.907Z,16.52
2022-12-01T17:56:12.714Z,15.68
2022-12-01T17:58:40.793Z,17.42
2022-12-01T18:01:16.022Z,16.63
2022-12-01T18:03:43.371Z,18.77
2022-12-01T18:06:11.212Z,16.98
2022-12-01T18:08:39.820Z,17.60
2022-12-01T18:11:10.550Z,16.85
2022-12-01T18:13:40.165Z,16.83
2022-12-01T18:16:13.653Z,18.05
2022-12-01T18:18:41.482Z,16.77
2022-12-01T18:21:11.074Z,16.92
2022-12-01T18:23:39.033Z,17.92
2022-12-01T18:26:16.036Z,16.30
2022-12-01T18:28:43.904Z,20.85
2022-12-01T18:31:14.945Z,17.05
2022-12-01T18:33:44.155Z,21.63
2022-12-01T18:36:32.640Z,16.85
2022-12-01T18:39:01.101Z,15.90
2022-12-01T18:41:28.520Z,19.60
2022-12-01T18:43:55.883Z,17.48
2022-12-01T18:46:23.524Z,20.08
2022-12-01T18:49:02.112Z,16.83
2022-12-01T18:51:34.242Z,15.25
2022-12-01T18:54:02.890Z,15.40
2022-12-01T18:56:30.678Z,16.38
2022-12-01T18:59:00.653Z,15.02
2022-12-01T19:01:32.298Z,16.67
2022-12-01T19:04:00.262Z,17.58
2022-12-01T19:06:28.713Z,15.73
2022-12-01T19:08:58.541Z,14.80
2022-12-01T19:11:25.844Z,18.77
2022-12-01T19:13:53.170Z,14.35
2022-12-01T19:16:20.542Z,14.35
2022-12-01T19:18:48.348Z,16.73
2022-12-01T19:21:18.357Z,15.18
2022-12-01T19:23:46.565Z,14.95
2022-12-01T19:26:16.718Z,15.10
2022-12-01T19:28:48.224Z,14.60
2022-12-01T19:31:18.523Z,15.80
2022-12-01T19:33:46.219Z,15.43
2022-12-01T19:36:25.106Z,15.30
2022-12-01T19:38:53.419Z,15.02
2022-12-01T19:41:20.998Z,16.50
2022-12-01T19:43:48.592Z,14.75
2022-12-01T19:46:19.008Z,17.15
2022-12-01T19:48:47.443Z,17.17
2022-12-01T19:51:20.524Z,14.40
2022-12-01T19:53:48.401Z,15.75
2022-12-01T19:56:15.991Z,15.80
2022-12-01T19:58:43.262Z,14.43
2022-12-01T20:01:13.386Z,18.08
2022-12-01T20:03:41.010Z,16.50
2022-12-01T20:06:11.373Z,14.25
2022-12-01T20:08:39.211Z,14.60
2022-12-01T20:11:07.259Z,15.07
2022-12-01T20:13:36.464Z,13.63
2022-12-01T20:16:06.763Z,15.68
2022-12-01T20:18:34.386Z,17.80
2022-12-01T20:21:07.031Z,16.58
2022-12-01T20:23:35.190Z,16.63
2022-12-01T20:26:04.840Z,15.93
2022-12-01T20:28:33.459Z,17.80
2022-12-01T20:31:00.736Z,14.25
2022-12-01T20:33:28.733Z,16.52
2022-12-01T20:35:56.094Z,15.18
2022-12-01T20:38:27.417Z,14.80
2022-12-01T20:40:55.616Z,15.45
2022-12-01T20:43:22.867Z,15.80
2022-12-01T20:45:50.154Z,18.98
2022-12-01T20:48:17.510Z,16.13
2022-12-01T20:50:45.087Z,14.82
2022-12-01T20:53:12.378Z,14.75
2022-12-01T20:55:39.715Z,16.98
2022-12-01T20:58:10.086Z,15.80
2022-12-01T21:00:45.314Z,16.63
2022-12-01T21:03:13.507Z,15.40
2022-12-01T21:05:43.006Z,16.17
2022-12-01T21:08:12.859Z,16.55
2022-12-01T21:10:43.710Z,15.85
2022-12-01T21:13:41.437Z,23.20
2022-12-01T21:16:26.926Z,17.73
2022-12-01T21:19:00.363Z,15.52
2022-12-01T21:21:34.509Z,17.10
2022-12-01T21:24:13.603Z,16.85
2022-12-01T21:26:45.905Z,16.50
2022-12-01T21:29:20.504Z,15.45
2022-12-01T21:34:21.000Z,16.35
2022-12-01T21:36:56.170Z,16.15
2022-12-01T21:39:25.067Z,15.43
2022-12-01T21:42:06.992Z,15.07
2022-12-01T21:44:37.555Z,15.77
2022-12-01T21:47:22.099Z,14.57
2022-12-01T21:49:54.157Z,15.52
2022-12-01T21:52:41.735Z,15.52
2022-12-01T21:55:15.257Z,17.55
2022-12-01T21:57:45.907Z,29.33
2022-12-01T22:00:32.773Z,19.15
2022-12-01T22:03:08.667Z,17.52
2022-12-01T22:06:01.131Z,18.25
2022-12-01T22:08:37.227Z,18.60
2022-12-01T22:11:24.013Z,16.45
2022-12-01T22:14:23.209Z,17.35
2022-12-01T22:16:58.123Z,18.10
2022-12-01T22:19:32.949Z,16.52
2022-12-01T22:22:12.369Z,17.90
2022-12-01T22:24:54.196Z,16.48
2022-12-01T22:27:24.621Z,16.48
2022-12-01T22:29:56.499Z,19.15
2022-12-01T22:32:26.764Z,17.95
2022-12-01T22:34:57.442Z,19.15
2022-12-01T22:37:34.078Z,19.73
2022-12-01T22:40:01.682Z,18.35
2022-12-01T22:42:36.462Z,15.82
2022-12-01T22:45:25.410Z,19.80
2022-12-01T22:48:00.611Z,18.05
2022-12-01T22:50:31.114Z,17.27
2022-12-01T22:53:10.881Z,16.85
2022-12-01T22:55:39.573Z,16.75
2022-12-01T22:58:21.544Z,16.88
2022-12-01T23:00:48.850Z,17.98
2022-12-01T23:03:16.884Z,18.27
2022-12-01T23:05:45.452Z,18.25
2022-12-01T23:08:20.486Z,17.33
2022-12-01T23:10:47.706Z,18.90
2022-12-01T23:13:25.160Z,18.65
2022-12-01T23:15:54.087Z,19.52
2022-12-01T23:18:24.524Z,17.98
2022-12-01T23:20:53.713Z,18.25
2022-12-01T23:23:33.148Z,17.55
2022-12-01T23:26:06.980Z,16.77
2022-12-01T23:28:36.834Z,17.85
2022-12-01T23:31:04.139Z,19.67
2022-12-01T23:33:35.539Z,18.98
2022-12-01T23:36:11.697Z,18.33
2022-12-01T23:38:43.885Z,18.92
2022-12-01T23:41:32.846Z,18.23
2022-12-01T23:44:08.922Z,20.08
2022-12-01T23:46:36.583Z,17.92
2022-12-01T23:49:09.914Z,17.73
2022-12-01T23:51:57.509Z,19.77
2022-12-01T23:54:37.710Z,19.92
2022-12-01T23:57:21.973Z,18.58
2022-12-01T23:59:53.022Z,19.42
